Time;durP1;ratioP1;P1;durP2;ratioP2;P2;SDS_P1;SDS_P2;PMS_P1;PMS_P2;Temp;Humidity;BMP_temperature;BMP_pressure;BME280_temperature;BME280_humidity;BME280_pressure;Samples;Min_cycle;Max_cycle;Signal;HPM_P1;HPM_P2
2023/05/30 00:01:48;;;;;;;48.45;43.92;;;11.90;3.80;;;;;;5057976;28;20452;-60
2023/05/30 00:04:14;;;;;;;50.10;45.17;;;11.90;5.40;;;;;;5057746;28;20111;-61
2023/05/30 00:06:39;;;;;;;47.97;43.45;;;11.90;3.20;;;;;;5064373;28;20494;-60
2023/05/30 00:09:05;;;;;;;48.67;44.03;;;11.90;3.00;;;;;;5057177;28;20092;-61
2023/05/30 00:11:31;;;;;;;50.28;45.33;;;12.30;5.00;;;;;;5057892;28;20040;-60
2023/05/30 00:13:57;;;;;;;47.47;42.92;;;11.90;7.50;;;;;;5063175;28;20036;-61
2023/05/30 00:16:23;;;;;;;46.95;42.83;;;12.00;13.50;;;;;;5064546;28;20085;-61
2023/05/30 00:18:52;;;;;;;49.45;44.80;;;12.00;6.90;;;;;;5057233;28;20086;-60
2023/05/30 00:21:18;;;;;;;49.70;44.80;;;12.00;7.20;;;;;;5060326;28;20111;-60
2023/05/30 00:23:45;;;;;;;48.65;43.63;;;12.00;11.40;;;;;;5072576;28;20149;-60
2023/05/30 00:26:11;;;;;;;50.42;45.20;;;11.90;18.00;;;;;;5064774;28;20040;-61
2023/05/30 00:28:37;;;;;;;50.13;44.92;;;11.90;21.40;;;;;;5058855;28;20036;-61
2023/05/30 00:31:03;;;;;;;48.65;44.28;;;11.90;29.40;;;;;;5052450;28;20406;-61
2023/05/30 00:33:29;;;;;;;47.20;42.65;;;11.90;16.70;;;;;;5057065;28;20044;-61
2023/05/30 00:35:54;;;;;;;49.42;44.90;;;11.80;1.00;;;;;;5066673;28;20071;-60
2023/05/30 00:38:20;;;;;;;49.95;44.95;;;11.80;1.00;;;;;;5062312;28;20053;-60
2023/05/30 00:40:46;;;;;;;49.83;44.95;;;11.90;1.00;;;;;;5064731;28;20043;-61
2023/05/30 00:43:12;;;;;;;50.72;45.47;;;11.90;1.00;;;;;;5071947;28;20116;-60
2023/05/30 00:45:37;;;;;;;49.17;44.78;;;11.80;1.00;;;;;;5056166;28;20491;-60
2023/05/30 00:48:04;;;;;;;49.92;45.10;;;11.80;19.70;;;;;;5069910;28;20028;-61
2023/05/30 00:50:32;;;;;;;47.85;43.40;;;11.80;42.00;;;;;;5069818;28;20036;-61
2023/05/30 00:52:59;;;;;;;47.83;43.42;;;11.80;62.70;;;;;;5070448;28;20502;-61
2023/05/30 00:55:26;;;;;;;47.05;42.42;;;12.30;67.10;;;;;;5066446;28;20491;-61
2023/05/30 00:57:53;;;;;;;48.42;43.65;;;11.80;40.00;;;;;;5056234;28;20082;-61
2023/05/30 01:00:22;;;;;;;50.03;45.35;;;11.80;25.20;;;;;;5070443;28;20474;-61
2023/05/30 01:02:49;;;;;;;48.70;44.25;;;11.90;16.80;;;;;;5068878;28;20498;-60
2023/05/30 01:05:14;;;;;;;48.60;44.13;;;11.90;23.80;;;;;;5060222;28;20045;-61
2023/05/30 01:07:43;;;;;;;48.67;43.85;;;11.80;14.90;;;;;;5052986;28;20035;-60
2023/05/30 01:10:13;;;;;;;46.45;41.97;;;11.90;4.90;;;;;;5055485;28;20036;-60
2023/05/30 01:13:21;;;;;;;50.33;45.40;;;11.80;1.00;;;;;;5052575;28;20037;-60
2023/05/30 01:15:55;;;;;;;47.75;43.45;;;11.80;1.00;;;;;;5055233;28;20091;-60
2023/05/30 01:18:30;;;;;;;47.35;42.85;;;11.90;1.00;;;;;;5057207;28;20056;-60
2023/05/30 01:20:59;;;;;;;50.03;45.53;;;11.90;1.00;;;;;;5067818;28;20056;-60
2023/05/30 01:23:39;;;;;;;48.28;43.72;;;11.80;1.00;;;;;;5052684;28;20095;-60
2023/05/30 01:26:23;;;;;;;49.15;44.58;;;11.80;6.50;;;;;;5060459;28;20043;-60
2023/05/30 01:28:51;;;;;;;47.33;42.92;;;11.90;14.60;;;;;;5067377;28;20078;-60
2023/05/30 01:31:18;;;;;;;49.08;44.33;;;11.90;33.60;;;;;;5053647;28;20045;-60
2023/05/30 01:33:45;;;;;;;46.00;41.58;;;11.90;64.50;;;;;;5062433;28;20036;-60
2023/05/30 01:36:11;;;;;;;44.20;39.85;;;11.90;61.80;;;;;;5068375;28;20490;-60
2023/05/30 01:38:37;;;;;;;47.60;42.80;;;12.00;34.20;;;;;;5056043;28;20192;-60
2023/05/30 01:41:16;;;;;;;46.85;42.45;;;11.90;14.90;;;;;;5065316;28;20029;-61
2023/05/30 01:44:01;;;;;;;47.38;43.05;;;12.00;11.50;;;;;;5069136;28;20120;-60
2023/05/30 01:46:35;;;;;;;48.42;43.75;;;11.90;1.00;;;;;;5061604;28;20039;-60
2023/05/30 01:49:16;;;;;;;51.22;45.80;;;11.90;1.00;;;;;;5054265;28;20047;-60
2023/05/30 01:51:53;;;;;;;47.50;42.95;;;11.90;1.00;;;;;;5053560;28;20752;-60
2023/05/30 01:54:20;;;;;;;49.10;44.00;;;12.00;1.00;;;;;;5062290;28;20036;-61
2023/05/30 01:56:50;;;;;;;51.10;45.60;;;11.90;1.00;;;;;;5058402;28;20045;-60
2023/05/30 01:59:17;;;;;;;48.22;43.33;;;11.90;1.00;;;;;;5068127;28;20127;-61
2023/05/30 02:01:44;;;;;;;49.78;44.92;;;11.90;5.40;;;;;;5067623;28;20043;-60
2023/05/30 02:04:10;;;;;;;50.92;45.70;;;12.00;18.70;;;;;;5070159;28;20033;-60
2023/05/30 02:06:37;;;;;;;50.28;45.17;;;12.00;18.40;;;;;;5056965;28;20063;-60
2023/05/30 02:09:04;;;;;;;51.00;45.63;;;11.90;31.60;;;;;;5069989;28;20044;-61
2023/05/30 02:11:29;;;;;;;51.90;45.92;;;11.90;47.50;;;;;;5064479;28;20383;-60
2023/05/30 02:13:57;;;;;;;47.83;43.33;;;10.80;70.10;;;;;;5052903;28;20090;-60
2023/05/30 02:16:24;;;;;;;48.60;43.63;;;12.00;99.90;;;;;;5059807;28;20416;-60
2023/05/30 02:18:50;;;;;;;47.70;43.05;;;12.00;99.90;;;;;;5070219;28;20064;-60
2023/05/30 02:21:15;;;;;;;47.35;42.78;;;12.10;99.90;;;;;;5067041;28;20029;-60
2023/05/30 02:23:41;;;;;;;47.28;42.35;;;12.00;99.90;;;;;;5071195;28;20059;-60
2023/05/30 02:26:07;;;;;;;47.10;42.30;;;12.00;99.90;;;;;;5059454;28;20490;-61
2023/05/30 02:28:33;;;;;;;45.35;40.75;;;12.10;99.90;;;;;;5067558;28;20032;-60
2023/05/30 02:30:59;;;;;;;47.28;42.75;;;12.10;99.90;;;;;;5054500;28;20044;-60
2023/05/30 02:33:24;;;;;;;47.05;42.20;;;12.00;99.90;;;;;;5069727;28;20460;-60
2023/05/30 02:35:50;;;;;;;49.70;44.63;;;12.10;99.90;;;;;;5067581;28;20052;-60
2023/05/30 02:38:15;;;;;;;47.75;43.30;;;12.10;99.90;;;;;;5063553;28;20521;-60
2023/05/30 02:40:41;;;;;;;47.60;42.88;;;12.10;99.90;;;;;;5067034;28;20040;-60
2023/05/30 02:43:07;;;;;;;47.72;42.95;;;12.00;99.90;;;;;;5063923;28;20029;-60
2023/05/30 02:45:32;;;;;;;49.08;43.67;;;12.10;99.90;;;;;;5063945;28;20032;-60
2023/05/30 02:47:58;;;;;;;48.72;44.05;;;12.10;99.90;;;;;;5053086;28;20036;-60
2023/05/30 02:50:23;;;;;;;50.28;44.47;;;12.00;99.90;;;;;;5068068;28;20043;-60
2023/05/30 02:52:49;;;;;;;47.45;42.70;;;12.10;99.90;;;;;;5067119;28;20071;-60
2023/05/30 02:55:15;;;;;;;46.80;41.85;;;12.10;99.90;;;;;;5063600;28;20029;-60
2023/05/30 02:57:41;;;;;;;48.10;43.17;;;12.10;99.90;;;;;;5056164;28;20040;-60
2023/05/30 03:00:09;;;;;;;46.38;41.55;;;12.00;99.90;;;;;;5058467;28;20449;-60
2023/05/30 03:02:35;;;;;;;45.03;40.28;;;12.00;99.90;;;;;;5057001;28;20510;-60
2023/05/30 03:05:01;;;;;;;45.75;40.80;;;12.10;99.90;;;;;;5056006;28;20086;-60
2023/05/30 03:07:28;;;;;;;47.17;40.15;;;12.10;99.90;;;;;;5067350;28;20033;-60
2023/05/30 03:09:54;;;;;;;45.65;41.00;;;12.10;99.90;;;;;;5068875;28;20046;-60
2023/05/30 03:12:22;;;;;;;43.45;38.30;;;12.10;99.90;;;;;;5067036;28;20485;-60
2023/05/30 03:14:48;;;;;;;44.55;39.67;;;12.10;99.90;;;;;;5057211;28;20526;-60
2023/05/30 03:17:15;;;;;;;46.22;41.30;;;12.10;99.90;;;;;;5055782;28;20081;-60
2023/05/30 03:19:41;;;;;;;44.40;39.83;;;12.10;99.90;;;;;;5067817;28;20048;-60
2023/05/30 03:22:07;;;;;;;44.97;40.45;;;12.10;99.90;;;;;;5049741;28;20037;-60
2023/05/30 03:24:33;;;;;;;45.70;41.13;;;12.10;99.90;;;;;;5052646;28;20072;-63
2023/05/30 03:26:59;;;;;;;44.92;40.60;;;12.10;99.90;;;;;;5052510;28;20068;-60
2023/05/30 03:29:26;;;;;;;45.85;41.00;;;12.10;99.90;;;;;;5067409;28;20044;-60
2023/05/30 03:31:51;;;;;;;48.90;43.88;;;12.10;99.90;;;;;;5053517;28;20544;-60
2023/05/30 03:34:17;;;;;;;49.55;44.30;;;12.10;99.90;;;;;;5050316;28;20037;-60
2023/05/30 03:36:43;;;;;;;53.88;42.80;;;12.10;99.90;;;;;;5066515;28;20053;-60
2023/05/30 03:39:09;;;;;;;48.60;43.50;;;12.10;99.90;;;;;;5050290;28;20139;-60
2023/05/30 03:41:34;;;;;;;49.55;43.97;;;12.10;99.90;;;;;;5065512;28;20512;-61
2023/05/30 03:44:00;;;;;;;47.67;42.50;;;12.20;99.90;;;;;;5069122;28;20525;-61
2023/05/30 03:46:26;;;;;;;47.80;43.00;;;12.20;99.90;;;;;;5064457;28;20086;-60
2023/05/30 03:48:51;;;;;;;49.22;44.15;;;12.20;99.90;;;;;;5058499;28;20445;-60
2023/05/30 03:51:17;;;;;;;47.92;42.90;;;12.30;99.90;;;;;;5065072;28;20499;-60
2023/05/30 03:53:43;;;;;;;48.22;42.97;;;12.20;99.90;;;;;;5069708;28;20565;-60
2023/05/30 03:56:08;;;;;;;49.25;44.38;;;12.90;99.90;;;;;;5059137;28;20068;-60
2023/05/30 03:58:34;;;;;;;50.47;45.03;;;12.30;99.90;;;;;;5056231;28;20048;-60
2023/05/30 04:01:03;;;;;;;48.47;43.20;;;12.30;99.90;;;;;;5068781;28;20041;-60
2023/05/30 04:03:28;;;;;;;47.90;42.90;;;12.70;99.90;;;;;;5069595;28;20033;-60
2023/05/30 04:05:58;;;;;;;47.53;42.53;;;12.40;99.90;;;;;;5052698;28;20051;-60
2023/05/30 04:08:25;;;;;;;52.97;43.35;;;12.30;99.90;;;;;;5060599;28;20162;-60
2023/05/30 04:10:51;;;;;;;46.35;41.38;;;12.40;99.90;;;;;;5055065;28;20574;-60
2023/05/30 04:13:17;;;;;;;45.20;40.72;;;12.40;1.00;;;;;;5058953;28;20785;-60
2023/05/30 04:15:42;;;;;;;46.13;41.42;;;12.30;1.00;;;;;;5058628;28;20033;-60
2023/05/30 04:18:08;;;;;;;44.30;39.90;;;12.40;99.90;;;;;;5057451;28;20457;-60
2023/05/30 04:20:34;;;;;;;44.80;40.47;;;12.40;99.90;;;;;;5060997;28;20040;-60
2023/05/30 04:22:59;;;;;;;44.03;39.50;;;12.40;99.90;;;;;;5056674;28;20029;-61
2023/05/30 04:25:25;;;;;;;46.10;41.22;;;12.40;99.90;;;;;;5060466;28;20044;-60
2023/05/30 04:27:51;;;;;;;45.38;40.75;;;12.40;99.90;;;;;;5061404;28;20041;-60
2023/05/30 04:30:17;;;;;;;44.88;40.28;;;12.40;99.90;;;;;;5069908;28;20091;-60
2023/05/30 04:32:42;;;;;;;46.17;41.60;;;12.40;99.90;;;;;;5046998;28;20044;-60
2023/05/30 04:35:08;;;;;;;46.22;41.47;;;12.40;99.90;;;;;;5053883;28;20037;-60
2023/05/30 04:37:38;;;;;;;47.10;42.50;;;12.50;99.90;;;;;;5054081;28;20065;-60
2023/05/30 04:40:05;;;;;;;47.38;42.40;;;12.40;99.90;;;;;;5055243;28;20525;-60
2023/05/30 04:42:33;;;;;;;46.60;42.00;;;12.40;99.90;;;;;;5070002;28;20492;-60
2023/05/30 04:45:00;;;;;;;47.67;42.20;;;12.50;99.90;;;;;;5068693;28;20050;-60
2023/05/30 04:47:28;;;;;;;48.15;43.20;;;12.50;99.90;;;;;;5061510;28;20482;-60
2023/05/30 04:49:54;;;;;;;49.55;44.67;;;12.50;99.90;;;;;;5071087;28;20037;-60
2023/05/30 04:52:21;;;;;;;48.20;43.67;;;12.40;99.90;;;;;;5069656;28;20123;-60
2023/05/30 04:54:47;;;;;;;48.97;43.60;;;12.60;99.90;;;;;;5064121;28;20040;-60
2023/05/30 04:57:12;;;;;;;48.33;43.40;;;12.50;99.90;;;;;;5067848;28;20043;-60
2023/05/30 04:59:39;;;;;;;46.13;41.08;;;12.50;99.90;;;;;;5071650;28;20032;-60
2023/05/30 05:02:05;;;;;;;47.20;40.55;;;12.50;1.00;;;;;;5065678;28;20037;-60
2023/05/30 05:04:30;;;;;;;44.75;40.03;;;12.60;1.00;;;;;;5066747;28;20532;-60
2023/05/30 05:06:57;;;;;;;44.13;39.63;;;12.60;7.10;;;;;;5068672;28;20486;-60
2023/05/30 05:09:24;;;;;;;40.92;37.10;;;12.70;83.40;;;;;;5072001;28;20036;-61
2023/05/30 05:11:50;;;;;;;41.58;37.55;;;12.50;99.90;;;;;;5066840;28;20119;-60
2023/05/30 05:14:16;;;;;;;41.35;37.25;;;12.50;99.90;;;;;;5071781;28;20464;-60
2023/05/30 05:16:42;;;;;;;40.35;36.63;;;12.60;99.90;;;;;;5060308;28;20040;-60
2023/05/30 05:19:07;;;;;;;39.35;35.83;;;12.50;99.90;;;;;;5061138;28;20486;-60
2023/05/30 05:21:33;;;;;;;39.95;36.33;;;12.50;99.90;;;;;;5056922;28;20060;-60
2023/05/30 05:23:58;;;;;;;41.70;37.28;;;12.50;99.90;;;;;;5052488;28;20052;-59
2023/05/30 05:26:24;;;;;;;40.00;36.20;;;12.40;99.90;;;;;;5058552;28;20045;-60
2023/05/30 05:28:50;;;;;;;39.80;35.72;;;12.40;1.00;;;;;;5055913;28;20083;-60
2023/05/30 05:31:16;;;;;;;39.85;35.97;;;12.70;1.00;;;;;;5058118;28;20413;-60
2023/05/30 05:33:42;;;;;;;38.20;34.80;;;12.50;1.00;;;;;;5063738;28;20036;-59
2023/05/30 05:36:08;;;;;;;37.67;34.08;;;12.40;1.00;;;;;;5068036;28;20037;-60
2023/05/30 05:38:33;;;;;;;36.70;33.20;;;12.40;86.80;;;;;;5056549;28;20056;-59
2023/05/30 05:40:59;;;;;;;36.80;33.25;;;12.40;99.90;;;;;;5063373;28;20143;-59
2023/05/30 05:43:25;;;;;;;35.78;32.47;;;12.50;99.90;;;;;;5061025;28;20068;-60
2023/05/30 05:45:53;;;;;;;35.13;31.83;;;12.60;99.90;;;;;;5056518;28;20041;-60
2023/05/30 05:48:19;;;;;;;34.35;31.27;;;12.50;1.00;;;;;;5065391;28;20470;-59
2023/05/30 05:50:44;;;;;;;35.78;32.75;;;12.60;1.00;;;;;;5067941;28;20041;-60
2023/05/30 05:53:10;;;;;;;35.35;32.20;;;12.50;1.00;;;;;;5055217;28;20414;-60
2023/05/30 05:55:36;;;;;;;36.10;32.33;;;12.50;1.00;;;;;;5055916;28;20036;-59
2023/05/30 05:58:01;;;;;;;35.53;32.38;;;12.60;1.00;;;;;;5052509;28;20040;-60
2023/05/30 06:00:27;;;;;;;37.75;33.92;;;12.50;1.00;;;;;;5053346;28;20040;-60
2023/05/30 06:02:53;;;;;;;37.20;33.53;;;12.60;17.80;;;;;;5054666;28;20448;-59
2023/05/30 06:05:19;;;;;;;35.72;32.65;;;12.50;99.90;;;;;;5055738;28;20033;-59
2023/05/30 06:07:45;;;;;;;35.28;32.05;;;12.60;99.90;;;;;;5070396;28;20048;-60
2023/05/30 06:10:10;;;;;;;31.90;29.08;;;12.60;99.90;;;;;;5055662;28;20041;-59
2023/05/30 06:12:36;;;;;;;32.25;29.20;;;12.60;1.00;;;;;;5055646;28;20049;-60
2023/05/30 06:15:03;;;;;;;32.28;29.38;;;12.60;1.00;;;;;;5059964;28;20036;-60
2023/05/30 06:17:28;;;;;;;32.03;29.23;;;12.60;99.90;;;;;;5062723;28;20829;-60
2023/05/30 06:19:54;;;;;;;32.08;29.15;;;13.00;99.90;;;;;;5058892;28;20037;-59
2023/05/30 06:22:20;;;;;;;31.50;28.90;;;12.80;1.00;;;;;;5055407;28;20391;-62
2023/05/30 06:24:46;;;;;;;30.67;28.00;;;13.10;1.00;;;;;;5059311;28;20043;-59
2023/05/30 06:27:12;;;;;;;31.45;28.55;;;12.80;1.00;;;;;;5053823;28;20037;-59
2023/05/30 06:29:38;;;;;;;32.03;29.10;;;12.80;99.90;;;;;;5064503;28;20056;-59
2023/05/30 06:32:04;;;;;;;31.15;28.48;;;12.80;99.90;;;;;;5068128;28;20453;-60
2023/05/30 06:34:29;;;;;;;30.27;27.67;;;11.40;99.90;;;;;;5055294;28;20391;-59
2023/05/30 06:36:55;;;;;;;30.15;27.55;;;12.90;99.90;;;;;;5051692;28;20047;-59
2023/05/30 06:39:21;;;;;;;29.63;26.77;;;12.80;7.40;;;;;;5054331;28;20110;-59
2023/05/30 06:41:47;;;;;;;29.10;26.55;;;12.70;1.00;;;;;;5055442;28;20250;-59
2023/05/30 06:44:12;;;;;;;29.23;26.42;;;12.90;99.90;;;;;;5057687;28;20056;-59
2023/05/30 06:46:38;;;;;;;29.13;26.45;;;12.80;1.00;;;;;;5068826;28;20497;-60
2023/05/30 06:49:04;;;;;;;30.40;27.52;;;13.30;99.90;;;;;;5066341;28;20127;-59
2023/05/30 06:51:30;;;;;;;30.58;27.75;;;12.80;99.90;;;;;;5068853;28;20119;-59
2023/05/30 06:53:57;;;;;;;29.67;26.95;;;12.70;1.00;;;;;;5069328;28;20406;-60
2023/05/30 06:56:22;;;;;;;30.48;27.67;;;12.70;1.00;;;;;;5069599;28;20044;-59
2023/05/30 06:58:48;;;;;;;29.98;27.42;;;12.90;40.90;;;;;;5062792;28;20071;-59
2023/05/30 07:01:14;;;;;;;28.83;26.23;;;12.70;99.90;;;;;;5055033;28;20078;-60
2023/05/30 07:03:39;;;;;;;28.83;26.45;;;12.90;99.90;;;;;;5068990;28;20040;-60
2023/05/30 07:06:06;;;;;;;29.10;26.52;;;12.80;99.90;;;;;;5069215;28;20579;-59
2023/05/30 07:08:32;;;;;;;29.63;26.92;;;12.70;1.00;;;;;;5067648;28;20075;-59
2023/05/30 07:10:57;;;;;;;28.20;25.77;;;12.90;36.90;;;;;;5064719;28;20076;-59
2023/05/30 07:13:23;;;;;;;29.10;26.60;;;13.30;99.90;;;;;;5053160;28;20039;-59
2023/05/30 07:15:49;;;;;;;30.17;27.40;;;13.00;99.90;;;;;;5067023;28;20125;-60
2023/05/30 07:18:14;;;;;;;29.95;27.20;;;13.00;99.90;;;;;;5061632;28;20398;-59
2023/05/30 07:20:40;;;;;;;28.50;25.85;;;12.80;60.40;;;;;;5069018;28;20603;-60
2023/05/30 07:23:06;;;;;;;28.98;26.77;;;12.90;19.30;;;;;;5058825;28;20041;-60
2023/05/30 07:25:32;;;;;;;27.85;25.55;;;12.80;1.00;;;;;;5067376;28;20104;-59
2023/05/30 07:27:57;;;;;;;28.83;26.52;;;12.90;99.90;;;;;;5052673;28;20115;-59
2023/05/30 07:30:23;;;;;;;28.80;26.60;;;13.00;99.90;;;;;;5049196;28;20051;-59
2023/05/30 07:32:49;;;;;;;27.08;24.90;;;12.90;99.90;;;;;;5050231;28;20040;-59
2023/05/30 07:35:15;;;;;;;28.55;26.40;;;13.00;37.10;;;;;;5052801;28;20063;-59
2023/05/30 07:37:40;;;;;;;27.52;25.35;;;13.20;1.00;;;;;;5049414;28;20136;-59
2023/05/30 07:40:07;;;;;;;27.48;25.42;;;13.30;1.00;;;;;;5053058;28;20055;-60
2023/05/30 07:42:36;;;;;;;28.67;26.58;;;13.20;99.90;;;;;;5049360;28;20131;-59
2023/05/30 07:45:02;;;;;;;28.27;26.20;;;13.10;86.00;;;;;;5061950;28;20796;-59
2023/05/30 07:47:28;;;;;;;28.05;25.92;;;13.20;1.00;;;;;;5052789;28;20036;-59
2023/05/30 07:49:54;;;;;;;25.38;23.52;;;13.20;1.00;;;;;;5057919;28;20122;-59
2023/05/30 07:52:19;;;;;;;24.95;23.13;;;13.10;99.90;;;;;;5067653;28;20508;-59
2023/05/30 07:54:45;;;;;;;28.20;26.17;;;13.30;99.90;;;;;;5063433;28;20040;-59
2023/05/30 07:57:13;;;;;;;28.83;26.73;;;13.40;99.90;;;;;;5069453;28;20050;-60
2023/05/30 07:59:41;;;;;;;27.45;25.55;;;13.50;99.90;;;;;;5066303;28;20474;-60
2023/05/30 08:02:07;;;;;;;27.50;25.40;;;14.20;99.90;;;;;;5050870;28;20099;-60
2023/05/30 08:04:33;;;;;;;26.95;24.98;;;13.90;99.90;;;;;;5060945;28;20482;-59
2023/05/30 08:06:58;;;;;;;27.00;25.10;;;13.50;99.90;;;;;;5057954;28;20608;-59
2023/05/30 08:09:24;;;;;;;27.83;25.77;;;13.50;99.90;;;;;;5068642;28;20044;-59
2023/05/30 08:11:50;;;;;;;29.38;27.27;;;13.40;99.90;;;;;;5068321;28;20045;-59
2023/05/30 08:14:15;;;;;;;28.25;26.10;;;13.70;1.00;;;;;;5050135;28;20056;-60
2023/05/30 08:16:41;;;;;;;28.67;26.55;;;12.60;79.40;;;;;;5049084;28;20044;-60
2023/05/30 08:19:07;;;;;;;28.52;26.33;;;13.40;99.90;;;;;;5056983;28;20036;-60
2023/05/30 08:21:36;;;;;;;26.52;24.73;;;13.60;99.90;;;;;;5053048;28;20032;-60
2023/05/30 08:24:02;;;;;;;26.48;24.67;;;13.50;1.00;;;;;;5069263;28;20036;-60
2023/05/30 08:26:30;;;;;;;25.85;23.95;;;13.70;99.90;;;;;;5068377;28;20044;-60
2023/05/30 08:28:56;;;;;;;22.17;20.67;;;14.30;73.00;;;;;;5054947;28;20415;-60
2023/05/30 08:31:22;;;;;;;23.17;21.27;;;14.40;1.00;;;;;;5049015;28;20037;-60
2023/05/30 08:33:47;;;;;;;27.00;25.05;;;14.80;1.00;;;;;;5063444;28;20502;-60
2023/05/30 08:36:13;;;;;;;28.77;26.58;;;14.90;95.50;;;;;;5064267;28;20033;-60
2023/05/30 08:38:39;;;;;;;30.60;28.40;;;14.70;99.90;;;;;;5056012;28;20048;-60
2023/05/30 08:41:04;;;;;;;31.15;28.85;;;14.30;99.90;;;;;;5066319;28;20082;-60
2023/05/30 08:43:30;;;;;;;31.63;29.23;;;14.10;99.90;;;;;;5072431;28;20075;-59
2023/05/30 08:45:57;;;;;;;32.20;29.80;;;13.90;99.90;;;;;;5072609;28;20086;-60
2023/05/30 08:48:25;;;;;;;30.85;28.60;;;13.70;99.90;;;;;;5071396;28;20040;-60
2023/05/30 08:50:52;;;;;;;30.08;27.70;;;13.80;99.90;;;;;;5070411;28;20041;-60
2023/05/30 08:53:25;;;;;;;30.45;27.80;;;13.80;99.90;;;;;;5062085;28;20079;-60
2023/05/30 08:56:02;;;;;;;28.58;26.60;;;14.00;81.80;;;;;;5054242;28;20462;-62
2023/05/30 08:58:47;;;;;;;27.02;24.85;;;13.90;99.90;;;;;;5058406;28;20052;-62
2023/05/30 09:01:12;;;;;;;25.92;24.10;;;14.10;99.90;;;;;;5055492;28;20044;-62
2023/05/30 09:03:42;;;;;;;25.35;23.40;;;14.10;1.00;;;;;;5057756;28;20055;-62
2023/05/30 09:06:08;;;;;;;26.33;24.40;;;14.10;99.90;;;;;;5059895;28;20486;-62
2023/05/30 09:08:36;;;;;;;25.35;22.98;;;14.30;99.90;;;;;;5062476;28;20058;-62
2023/05/30 09:11:03;;;;;;;22.88;21.27;;;14.40;1.00;;;;;;5058172;28;20759;-61
2023/05/30 09:13:28;;;;;;;23.65;21.92;;;14.50;99.90;;;;;;5072410;28;20040;-62
2023/05/30 09:15:54;;;;;;;23.63;22.02;;;14.60;99.90;;;;;;5070941;28;20513;-62
2023/05/30 09:18:20;;;;;;;23.17;21.63;;;14.60;99.90;;;;;;5065479;28;20440;-61
2023/05/30 09:20:46;;;;;;;24.17;22.48;;;14.70;26.40;;;;;;5065944;28;20033;-62
2023/05/30 09:23:12;;;;;;;24.35;22.75;;;14.80;1.00;;;;;;5063527;28;20079;-62
2023/05/30 09:25:48;;;;;;;25.67;23.75;;;14.70;1.00;;;;;;5063950;28;20853;-62
2023/05/30 09:28:14;;;;;;;26.23;24.42;;;14.70;99.90;;;;;;5058197;28;20135;-62
2023/05/30 09:31:09;;;;;;;24.17;22.48;;;14.80;1.00;;;;;;5062451;28;20394;-62
2023/05/30 09:33:51;;;;;;;25.38;23.73;;;14.90;99.90;;;;;;5051868;28;20490;-62
2023/05/30 09:36:26;;;;;;;25.00;23.23;;;15.00;99.90;;;;;;5058149;28;20414;-62
2023/05/30 09:39:01;;;;;;;26.45;24.65;;;15.00;99.90;;;;;;5066894;28;20060;-62
2023/05/30 09:41:28;;;;;;;29.02;26.90;;;15.10;99.90;;;;;;5069622;28;20063;-62
2023/05/30 09:43:54;;;;;;;27.90;25.80;;;15.60;99.90;;;;;;5059395;28;20780;-62
2023/05/30 09:46:26;;;;;;;30.60;28.50;;;15.00;99.90;;;;;;5052665;28;20094;-62
2023/05/30 09:48:52;;;;;;;29.10;27.20;;;14.90;99.90;;;;;;5060910;28;20520;-62
2023/05/30 09:51:19;;;;;;;29.17;27.08;;;14.80;99.90;;;;;;5065450;28;20075;-62
2023/05/30 09:54:14;;;;;;;27.20;25.30;;;14.80;99.90;;;;;;5064495;28;21654;-62
2023/05/30 09:56:41;;;;;;;26.83;25.00;;;14.80;99.90;;;;;;5046620;28;20049;-62
2023/05/30 09:59:08;;;;;;;26.23;24.42;;;15.20;99.90;;;;;;5062841;28;20402;-62
2023/05/30 10:01:53;;;;;;;25.33;23.55;;;15.60;99.90;;;;;;5056502;28;20566;-63
2023/05/30 10:04:23;;;;;;;29.15;27.15;;;15.90;99.90;;;;;;5053576;28;20044;-62
2023/05/30 10:06:52;;;;;;;31.23;28.92;;;15.90;99.90;;;;;;5055627;28;20127;-62
2023/05/30 10:09:20;;;;;;;36.42;33.70;;;15.50;99.90;;;;;;5054091;28;20051;-62
2023/05/30 10:11:46;;;;;;;35.90;33.20;;;15.20;99.90;;;;;;5057537;28;20040;-62
2023/05/30 10:14:13;;;;;;;35.50;32.90;;;14.90;99.90;;;;;;5062015;28;20040;-62
2023/05/30 10:16:53;;;;;;;35.60;33.00;;;14.70;99.90;;;;;;5056289;28;20408;-62
2023/05/30 10:19:26;;;;;;;33.88;31.42;;;14.70;1.00;;;;;;5059394;28;20095;-62
2023/05/30 10:21:54;;;;;;;32.42;29.92;;;14.70;1.00;;;;;;5069732;28;20076;-62
2023/05/30 10:24:20;;;;;;;30.33;28.10;;;14.80;1.00;;;;;;5058246;28;20037;-62
2023/05/30 10:26:59;;;;;;;29.20;27.10;;;15.00;1.00;;;;;;5057923;28;20499;-62
2023/05/30 10:29:28;;;;;;;30.92;28.73;;;15.10;1.00;;;;;;5059870;28;20132;-62
2023/05/30 10:31:55;;;;;;;32.03;29.67;;;15.10;1.00;;;;;;5062015;28;20101;-62
2023/05/30 10:34:42;;;;;;;35.47;32.80;;;15.10;1.00;;;;;;5068203;28;20033;-62
2023/05/30 10:37:08;;;;;;;34.03;31.33;;;15.10;1.00;;;;;;5069953;28;20050;-62
2023/05/30 10:39:58;;;;;;;33.50;31.10;;;14.90;65.10;;;;;;5070006;28;20403;-62
2023/05/30 10:42:39;;;;;;;34.35;31.85;;;14.70;99.90;;;;;;5054867;28;20040;-62
2023/05/30 10:45:20;;;;;;;33.97;31.45;;;14.60;99.90;;;;;;5050844;28;20037;-62
2023/05/30 10:48:10;;;;;;;31.27;28.98;;;14.50;1.00;;;;;;5062936;28;20037;-62
2023/05/30 10:50:42;;;;;;;30.25;27.95;;;14.50;1.00;;;;;;5055090;28;20045;-62
2023/05/30 10:53:20;;;;;;;30.60;28.40;;;14.80;1.00;;;;;;5050382;28;20041;-62
2023/05/30 10:55:47;;;;;;;26.92;25.08;;;14.90;99.90;;;;;;5048866;28;20072;-62
2023/05/30 10:58:50;;;;;;;27.10;25.20;;;15.10;99.90;;;;;;5058813;28;20074;-62
2023/05/30 11:01:32;;;;;;;26.83;24.92;;;15.40;99.60;;;;;;5022116;28;20034;-62
2023/05/30 11:04:02;;;;;;;25.92;24.13;;;15.50;1.00;;;;;;5046705;28;20136;-62
2023/05/30 11:06:30;;;;;;;31.33;29.13;;;15.50;1.00;;;;;;5054492;28;20044;-62
2023/05/30 11:09:12;;;;;;;31.75;29.45;;;15.50;1.00;;;;;;5065559;28;20101;-62
2023/05/30 11:11:45;;;;;;;33.47;31.08;;;15.20;1.00;;;;;;5052309;28;20040;-63
2023/05/30 11:14:15;;;;;;;35.22;32.30;;;15.30;26.30;;;;;;5055177;28;20037;-63
2023/05/30 11:17:01;;;;;;;33.83;31.13;;;15.40;99.90;;;;;;5054983;28;20044;-63
2023/05/30 11:19:27;;;;;;;;;;;15.10;1.00;;;;;;5061516;28;20053;-63
2023/05/30 11:21:57;;;;;;;32.58;30.27;;;14.90;1.00;;;;;;5057945;28;20457;-63
2023/05/30 11:24:27;;;;;;;29.80;27.70;;;14.80;1.00;;;;;;5056688;28;20072;-63
2023/05/30 11:26:57;;;;;;;28.10;26.10;;;14.70;99.90;;;;;;5064038;28;20113;-65
2023/05/30 11:29:40;;;;;;;24.73;23.02;;;14.60;99.90;;;;;;5058541;28;20048;-66
2023/05/30 11:32:07;;;;;;;29.20;27.20;;;14.80;7.50;;;;;;5054881;28;20072;-66
2023/05/30 11:34:34;;;;;;;25.08;23.38;;;14.80;1.00;;;;;;5050985;28;20486;-66
2023/05/30 11:37:00;;;;;;;24.20;22.55;;;15.00;1.00;;;;;;5050101;28;20037;-66
2023/05/30 11:39:26;;;;;;;26.63;24.73;;;15.20;99.90;;;;;;5063887;28;20060;-66
2023/05/30 11:41:52;;;;;;;25.58;23.88;;;15.40;99.90;;;;;;5055142;28;20027;-63
2023/05/30 11:44:19;;;;;;;26.25;24.45;;;15.60;99.90;;;;;;5052743;28;20071;-63
2023/05/30 11:46:57;;;;;;;24.70;23.00;;;15.60;99.90;;;;;;5052707;28;20028;-63
2023/05/30 11:49:23;;;;;;;25.55;23.85;;;16.10;80.80;;;;;;5055224;28;20060;-63
2023/05/30 11:51:48;;;;;;;24.73;22.92;;;15.70;52.80;;;;;;5052996;28;20398;-63
2023/05/30 11:54:14;;;;;;;29.05;27.05;;;15.90;1.00;;;;;;5055369;28;20384;-63
2023/05/30 11:56:39;;;;;;;28.17;26.17;;;15.70;1.00;;;;;;5059542;28;20530;-63
2023/05/30 11:59:07;;;;;;;28.85;26.83;;;15.70;15.50;;;;;;5054516;28;20398;-63
2023/05/30 12:01:33;;;;;;;28.00;25.98;;;15.60;6.90;;;;;;5055614;28;20051;-63
2023/05/30 12:03:59;;;;;;;28.85;26.85;;;15.60;41.30;;;;;;5052314;28;20033;-63
2023/05/30 12:06:24;;;;;;;31.48;29.17;;;15.60;37.20;;;;;;5050496;28;20409;-63
2023/05/30 12:08:51;;;;;;;29.02;26.77;;;15.70;72.70;;;;;;5067606;28;20181;-63
2023/05/30 12:11:17;;;;;;;29.65;27.55;;;15.60;68.50;;;;;;5056221;28;20138;-63
2023/05/30 12:13:43;;;;;;;30.00;27.90;;;15.90;30.50;;;;;;5053065;28;20032;-63
2023/05/30 12:16:11;;;;;;;30.58;28.48;;;15.60;2.30;;;;;;5049898;28;20421;-63
2023/05/30 12:18:37;;;;;;;28.90;26.70;;;15.60;1.00;;;;;;5064697;28;20152;-63
2023/05/30 12:21:03;;;;;;;31.92;29.73;;;15.50;1.00;;;;;;5053179;28;20064;-63
2023/05/30 12:23:29;;;;;;;28.63;26.63;;;15.90;1.00;;;;;;5070768;28;20332;-63
2023/05/30 12:25:55;;;;;;;28.92;26.92;;;15.40;1.00;;;;;;5067686;28;20107;-63
2023/05/30 12:28:24;;;;;;;28.35;26.42;;;15.90;1.00;;;;;;5072099;28;20432;-63
2023/05/30 12:30:53;;;;;;;27.92;25.88;;;17.00;1.00;;;;;;5072653;28;20367;-64
2023/05/30 12:33:21;;;;;;;27.65;25.52;;;15.70;1.00;;;;;;5071158;28;20121;-63
2023/05/30 12:35:53;;;;;;;28.63;26.63;;;15.70;1.00;;;;;;5055721;28;20036;-63